sensor_id;sensor_type;location;lat;lon;timestamp;P1;durP1;ratioP1;P2;durP2;ratioP2
17566;SDS011;8901;52.088;5.084;2022-09-06T00:01:18;5.40;;;3.40;;
17566;SDS011;8901;52.088;5.084;2022-09-06T00:03:47;4.38;;;3.70;;
17566;SDS011;8901;52.088;5.084;2022-09-06T00:06:15;5.53;;;3.13;;
17566;SDS011;8901;52.088;5.084;2022-09-06T00:08:44;9.68;;;4.32;;
17566;SDS011;8901;52.088;5.084;2022-09-06T00:11:12;3.17;;;2.85;;
17566;SDS011;8901;52.088;5.084;2022-09-06T00:13:40;3.15;;;2.83;;
17566;SDS011;8901;52.088;5.084;2022-09-06T00:16:08;10.25;;;4.72;;
17566;SDS011;8901;52.088;5.084;2022-09-06T00:18:39;7.38;;;3.95;;
17566;SDS011;8901;52.088;5.084;2022-09-06T00:21:11;10.63;;;4.10;;
17566;SDS011;8901;52.088;5.084;2022-09-06T00:23:40;4.43;;;3.60;;
17566;SDS011;8901;52.088;5.084;2022-09-06T00:26:07;5.40;;;3.83;;
17566;SDS011;8901;52.088;5.084;2022-09-06T00:28:34;6.47;;;3.83;;
17566;SDS011;8901;52.088;5.084;2022-09-06T00:31:06;6.88;;;4.47;;
17566;SDS011;8901;52.088;5.084;2022-09-06T00:33:34;8.07;;;4.10;;
17566;SDS011;8901;52.088;5.084;2022-09-06T00:36:02;4.40;;;4.00;;
17566;SDS011;8901;52.088;5.084;2022-09-06T00:38:29;5.47;;;4.10;;
17566;SDS011;8901;52.088;5.084;2022-09-06T00:40:56;6.57;;;3.97;;
17566;SDS011;8901;52.088;5.084;2022-09-06T00:43:23;5.85;;;4.07;;
17566;SDS011;8901;52.088;5.084;2022-09-06T00:45:50;4.85;;;4.38;;
17566;SDS011;8901;52.088;5.084;2022-09-06T00:48:18;4.78;;;4.30;;
17566;SDS011;8901;52.088;5.084;2022-09-06T00:50:47;5.03;;;4.60;;
17566;SDS011;8901;52.088;5.084;2022-09-06T00:53:18;5.57;;;5.07;;
17566;SDS011;8901;52.088;5.084;2022-09-06T00:55:46;5.32;;;4.93;;
17566;SDS011;8901;52.088;5.084;2022-09-06T00:58:13;5.18;;;4.78;;
17566;SDS011;8901;52.088;5.084;2022-09-06T01:00:40;5.88;;;5.28;;
17566;SDS011;8901;52.088;5.084;2022-09-06T01:03:07;5.80;;;5.35;;
17566;SDS011;8901;52.088;5.084;2022-09-06T01:05:38;5.25;;;4.85;;
17566;SDS011;8901;52.088;5.084;2022-09-06T01:08:14;5.65;;;5.15;;
17566;SDS011;8901;52.088;5.084;2022-09-06T01:10:58;6.25;;;5.40;;
17566;SDS011;8901;52.088;5.084;2022-09-06T01:13:42;7.07;;;5.90;;
17566;SDS011;8901;52.088;5.084;2022-09-06T01:16:21;6.22;;;5.65;;
17566;SDS011;8901;52.088;5.084;2022-09-06T01:18:58;7.50;;;6.68;;
17566;SDS011;8901;52.088;5.084;2022-09-06T01:21:38;6.65;;;6.05;;
17566;SDS011;8901;52.088;5.084;2022-09-06T01:30:10;5.97;;;5.57;;
17566;SDS011;8901;52.088;5.084;2022-09-06T01:32:40;6.43;;;5.90;;
17566;SDS011;8901;52.088;5.084;2022-09-06T01:35:22;6.55;;;5.95;;
17566;SDS011;8901;52.088;5.084;2022-09-06T01:37:54;6.22;;;5.70;;
17566;SDS011;8901;52.088;5.084;2022-09-06T01:40:22;7.53;;;5.93;;
17566;SDS011;8901;52.088;5.084;2022-09-06T01:42:50;6.65;;;6.05;;
17566;SDS011;8901;52.088;5.084;2022-09-06T01:45:18;7.03;;;6.43;;
17566;SDS011;8901;52.088;5.084;2022-09-06T01:47:51;6.85;;;6.10;;
17566;SDS011;8901;52.088;5.084;2022-09-06T01:53:39;7.30;;;6.70;;
17566;SDS011;8901;52.088;5.084;2022-09-06T01:56:18;8.10;;;6.53;;
17566;SDS011;8901;52.088;5.084;2022-09-06T01:59:04;5.60;;;5.10;;
17566;SDS011;8901;52.088;5.084;2022-09-06T02:01:46;5.68;;;5.07;;
17566;SDS011;8901;52.088;5.084;2022-09-06T02:04:20;5.80;;;5.32;;
17566;SDS011;8901;52.088;5.084;2022-09-06T02:06:52;5.85;;;5.45;;
17566;SDS011;8901;52.088;5.084;2022-09-06T02:09:24;6.35;;;5.85;;
17566;SDS011;8901;52.088;5.084;2022-09-06T02:12:03;5.20;;;4.90;;
17566;SDS011;8901;52.088;5.084;2022-09-06T02:14:35;6.05;;;5.53;;
17566;SDS011;8901;52.088;5.084;2022-09-06T02:17:05;6.18;;;5.68;;
17566;SDS011;8901;52.088;5.084;2022-09-06T02:19:38;6.80;;;6.30;;
17566;SDS011;8901;52.088;5.084;2022-09-06T02:22:10;6.82;;;6.22;;
17566;SDS011;8901;52.088;5.084;2022-09-06T02:24:41;6.88;;;6.35;;
17566;SDS011;8901;52.088;5.084;2022-09-06T02:27:09;6.65;;;6.13;;
17566;SDS011;8901;52.088;5.084;2022-09-06T02:29:38;7.07;;;6.50;;
17566;SDS011;8901;52.088;5.084;2022-09-06T02:32:06;7.18;;;6.28;;
17566;SDS011;8901;52.088;5.084;2022-09-06T02:34:40;7.40;;;6.82;;
17566;SDS011;8901;52.088;5.084;2022-09-06T02:37:07;7.65;;;6.95;;
17566;SDS011;8901;52.088;5.084;2022-09-06T02:39:36;8.38;;;7.68;;
17566;SDS011;8901;52.088;5.084;2022-09-06T02:42:03;7.60;;;6.90;;
17566;SDS011;8901;52.088;5.084;2022-09-06T02:44:31;7.60;;;7.10;;
17566;SDS011;8901;52.088;5.084;2022-09-06T02:47:00;8.07;;;7.28;;
17566;SDS011;8901;52.088;5.084;2022-09-06T02:49:27;8.35;;;7.65;;
17566;SDS011;8901;52.088;5.084;2022-09-06T02:51:55;8.30;;;7.70;;
17566;SDS011;8901;52.088;5.084;2022-09-06T02:54:22;7.78;;;7.28;;
17566;SDS011;8901;52.088;5.084;2022-09-06T02:56:49;10.40;;;8.30;;
17566;SDS011;8901;52.088;5.084;2022-09-06T02:59:15;9.07;;;7.78;;
17566;SDS011;8901;52.088;5.084;2022-09-06T03:01:42;7.93;;;7.22;;
17566;SDS011;8901;52.088;5.084;2022-09-06T03:04:10;7.70;;;7.03;;
17566;SDS011;8901;52.088;5.084;2022-09-06T03:06:37;7.80;;;7.30;;
17566;SDS011;8901;52.088;5.084;2022-09-06T03:09:04;8.23;;;7.63;;
17566;SDS011;8901;52.088;5.084;2022-09-06T03:11:31;8.40;;;7.80;;
17566;SDS011;8901;52.088;5.084;2022-09-06T03:13:58;9.20;;;8.30;;
17566;SDS011;8901;52.088;5.084;2022-09-06T03:16:25;9.00;;;8.40;;
17566;SDS011;8901;52.088;5.084;2022-09-06T03:18:51;9.18;;;8.48;;
17566;SDS011;8901;52.088;5.084;2022-09-06T03:21:21;7.82;;;7.18;;
17566;SDS011;8901;52.088;5.084;2022-09-06T03:23:48;7.80;;;7.20;;
17566;SDS011;8901;52.088;5.084;2022-09-06T03:26:15;7.53;;;6.93;;
17566;SDS011;8901;52.088;5.084;2022-09-06T03:28:42;8.00;;;7.30;;
17566;SDS011;8901;52.088;5.084;2022-09-06T03:31:09;9.13;;;8.52;;
17566;SDS011;8901;52.088;5.084;2022-09-06T03:33:36;9.10;;;8.30;;
17566;SDS011;8901;52.088;5.084;2022-09-06T03:36:03;8.15;;;7.20;;
17566;SDS011;8901;52.088;5.084;2022-09-06T03:38:31;8.20;;;7.53;;
17566;SDS011;8901;52.088;5.084;2022-09-06T03:40:58;7.78;;;7.28;;
17566;SDS011;8901;52.088;5.084;2022-09-06T03:46:40;8.20;;;7.55;;
17566;SDS011;8901;52.088;5.084;2022-09-06T03:49:07;8.93;;;8.07;;
17566;SDS011;8901;52.088;5.084;2022-09-06T03:51:50;7.68;;;7.07;;
17566;SDS011;8901;52.088;5.084;2022-09-06T03:54:18;9.43;;;8.43;;
17566;SDS011;8901;52.088;5.084;2022-09-06T03:56:45;9.85;;;9.10;;
17566;SDS011;8901;52.088;5.084;2022-09-06T03:59:12;8.85;;;8.15;;
17566;SDS011;8901;52.088;5.084;2022-09-06T04:01:39;8.45;;;7.75;;
17566;SDS011;8901;52.088;5.084;2022-09-06T04:04:05;10.43;;;8.45;;
17566;SDS011;8901;52.088;5.084;2022-09-06T04:06:32;8.35;;;7.63;;
17566;SDS011;8901;52.088;5.084;2022-09-06T04:08:59;8.77;;;8.07;;
17566;SDS011;8901;52.088;5.084;2022-09-06T04:11:27;8.82;;;8.13;;
17566;SDS011;8901;52.088;5.084;2022-09-06T04:13:54;9.27;;;8.48;;
17566;SDS011;8901;52.088;5.084;2022-09-06T04:16:21;11.32;;;10.23;;
17566;SDS011;8901;52.088;5.084;2022-09-06T04:18:48;11.45;;;10.45;;
17566;SDS011;8901;52.088;5.084;2022-09-06T04:21:14;12.00;;;11.00;;
17566;SDS011;8901;52.088;5.084;2022-09-06T04:23:41;11.25;;;10.35;;
17566;SDS011;8901;52.088;5.084;2022-09-06T04:26:08;10.75;;;9.75;;
17566;SDS011;8901;52.088;5.084;2022-09-06T04:28:36;10.98;;;9.93;;
17566;SDS011;8901;52.088;5.084;2022-09-06T04:31:03;10.82;;;9.80;;
17566;SDS011;8901;52.088;5.084;2022-09-06T04:33:31;11.68;;;9.68;;
17566;SDS011;8901;52.088;5.084;2022-09-06T04:35:59;10.43;;;9.35;;
17566;SDS011;8901;52.088;5.084;2022-09-06T04:38:28;11.18;;;10.07;;
17566;SDS011;8901;52.088;5.084;2022-09-06T04:40:59;10.88;;;9.88;;
17566;SDS011;8901;52.088;5.084;2022-09-06T04:43:26;11.80;;;10.77;;
17566;SDS011;8901;52.088;5.084;2022-09-06T04:45:54;12.05;;;10.95;;
17566;SDS011;8901;52.088;5.084;2022-09-06T04:48:21;12.32;;;11.23;;
17566;SDS011;8901;52.088;5.084;2022-09-06T04:50:47;10.70;;;9.60;;
17566;SDS011;8901;52.088;5.084;2022-09-06T04:53:14;9.07;;;8.20;;
17566;SDS011;8901;52.088;5.084;2022-09-06T04:55:41;12.05;;;10.95;;
17566;SDS011;8901;52.088;5.084;2022-09-06T04:58:08;11.55;;;10.55;;
17566;SDS011;8901;52.088;5.084;2022-09-06T05:00:35;10.63;;;9.63;;
17566;SDS011;8901;52.088;5.084;2022-09-06T05:06:04;11.73;;;10.52;;
17566;SDS011;8901;52.088;5.084;2022-09-06T05:08:32;14.60;;;10.50;;
17566;SDS011;8901;52.088;5.084;2022-09-06T05:11:01;11.43;;;10.02;;
17566;SDS011;8901;52.088;5.084;2022-09-06T05:13:28;10.35;;;9.35;;
17566;SDS011;8901;52.088;5.084;2022-09-06T05:15:54;10.13;;;9.13;;
17566;SDS011;8901;52.088;5.084;2022-09-06T05:18:24;9.77;;;8.90;;
17566;SDS011;8901;52.088;5.084;2022-09-06T05:20:53;11.82;;;10.73;;
17566;SDS011;8901;52.088;5.084;2022-09-06T05:23:20;13.27;;;12.02;;
17566;SDS011;8901;52.088;5.084;2022-09-06T05:25:47;12.75;;;11.43;;
17566;SDS011;8901;52.088;5.084;2022-09-06T05:28:14;9.32;;;8.40;;
17566;SDS011;8901;52.088;5.084;2022-09-06T05:30:41;12.38;;;11.18;;
17566;SDS011;8901;52.088;5.084;2022-09-06T05:33:09;10.48;;;8.48;;
17566;SDS011;8901;52.088;5.084;2022-09-06T05:35:37;12.68;;;10.50;;
17566;SDS011;8901;52.088;5.084;2022-09-06T05:38:06;13.38;;;12.07;;
17566;SDS011;8901;52.088;5.084;2022-09-06T05:40:32;12.77;;;11.38;;
17566;SDS011;8901;52.088;5.084;2022-09-06T05:42:59;13.45;;;12.05;;
17566;SDS011;8901;52.088;5.084;2022-09-06T05:45:26;11.20;;;8.90;;
17566;SDS011;8901;52.088;5.084;2022-09-06T05:47:53;9.07;;;8.18;;
17566;SDS011;8901;52.088;5.084;2022-09-06T05:50:20;14.23;;;11.52;;
17566;SDS011;8901;52.088;5.084;2022-09-06T05:52:47;12.73;;;11.15;;
17566;SDS011;8901;52.088;5.084;2022-09-06T05:55:15;9.63;;;7.85;;
17566;SDS011;8901;52.088;5.084;2022-09-06T05:57:42;13.57;;;12.35;;
17566;SDS011;8901;52.088;5.084;2022-09-06T06:00:09;11.85;;;10.63;;
17566;SDS011;8901;52.088;5.084;2022-09-06T06:02:37;10.25;;;8.98;;
17566;SDS011;8901;52.088;5.084;2022-09-06T06:05:05;10.77;;;9.07;;
17566;SDS011;8901;52.088;5.084;2022-09-06T06:07:32;9.77;;;8.75;;
17566;SDS011;8901;52.088;5.084;2022-09-06T06:09:59;12.13;;;10.38;;
17566;SDS011;8901;52.088;5.084;2022-09-06T06:12:27;14.05;;;12.75;;
17566;SDS011;8901;52.088;5.084;2022-09-06T06:14:54;15.52;;;12.82;;
17566;SDS011;8901;52.088;5.084;2022-09-06T06:17:21;11.15;;;9.13;;
17566;SDS011;8901;52.088;5.084;2022-09-06T06:19:48;11.57;;;10.43;;
17566;SDS011;8901;52.088;5.084;2022-09-06T06:22:15;12.23;;;11.10;;
17566;SDS011;8901;52.088;5.084;2022-09-06T06:24:41;11.38;;;10.27;;
17566;SDS011;8901;52.088;5.084;2022-09-06T06:27:08;11.68;;;10.60;;
17566;SDS011;8901;52.088;5.084;2022-09-06T06:29:36;10.80;;;9.80;;
17566;SDS011;8901;52.088;5.084;2022-09-06T06:32:03;11.77;;;10.57;;
17566;SDS011;8901;52.088;5.084;2022-09-06T06:34:30;11.20;;;9.43;;
17566;SDS011;8901;52.088;5.084;2022-09-06T06:36:57;10.23;;;8.50;;
17566;SDS011;8901;52.088;5.084;2022-09-06T06:39:24;10.32;;;9.18;;
17566;SDS011;8901;52.088;5.084;2022-09-06T06:41:51;9.55;;;8.52;;
17566;SDS011;8901;52.088;5.084;2022-09-06T06:44:18;12.70;;;9.05;;
17566;SDS011;8901;52.088;5.084;2022-09-06T06:46:46;13.05;;;11.63;;
17566;SDS011;8901;52.088;5.084;2022-09-06T06:49:13;11.70;;;10.38;;
17566;SDS011;8901;52.088;5.084;2022-09-06T06:51:40;11.38;;;10.07;;
17566;SDS011;8901;52.088;5.084;2022-09-06T06:54:06;10.52;;;9.52;;
17566;SDS011;8901;52.088;5.084;2022-09-06T06:56:34;12.38;;;11.25;;
17566;SDS011;8901;52.088;5.084;2022-09-06T06:59:03;14.27;;;10.77;;
17566;SDS011;8901;52.088;5.084;2022-09-06T07:01:32;16.02;;;10.02;;
17566;SDS011;8901;52.088;5.084;2022-09-06T07:04:01;10.55;;;9.52;;
17566;SDS011;8901;52.088;5.084;2022-09-06T07:06:29;10.50;;;9.43;;
17566;SDS011;8901;52.088;5.084;2022-09-06T07:08:56;9.88;;;8.88;;
17566;SDS011;8901;52.088;5.084;2022-09-06T07:11:24;9.70;;;8.57;;
17566;SDS011;8901;52.088;5.084;2022-09-06T07:13:51;9.93;;;8.93;;
17566;SDS011;8901;52.088;5.084;2022-09-06T07:16:18;10.82;;;8.52;;
17566;SDS011;8901;52.088;5.084;2022-09-06T07:18:49;8.63;;;7.78;;
17566;SDS011;8901;52.088;5.084;2022-09-06T07:21:18;10.40;;;8.63;;
17566;SDS011;8901;52.088;5.084;2022-09-06T07:23:50;9.90;;;7.20;;
17566;SDS011;8901;52.088;5.084;2022-09-06T07:26:18;8.90;;;7.40;;
17566;SDS011;8901;52.088;5.084;2022-09-06T07:28:45;7.60;;;6.60;;
17566;SDS011;8901;52.088;5.084;2022-09-06T07:31:12;9.18;;;8.18;;
17566;SDS011;8901;52.088;5.084;2022-09-06T07:33:39;10.43;;;7.00;;
17566;SDS011;8901;52.088;5.084;2022-09-06T07:36:06;8.98;;;7.65;;
17566;SDS011;8901;52.088;5.084;2022-09-06T07:38:36;8.30;;;7.05;;
17566;SDS011;8901;52.088;5.084;2022-09-06T07:41:05;9.70;;;7.60;;
17566;SDS011;8901;52.088;5.084;2022-09-06T07:43:33;9.50;;;7.80;;
17566;SDS011;8901;52.088;5.084;2022-09-06T07:46:01;12.68;;;8.50;;
17566;SDS011;8901;52.088;5.084;2022-09-06T07:48:29;11.15;;;7.05;;
17566;SDS011;8901;52.088;5.084;2022-09-06T07:51:04;10.95;;;6.07;;
17566;SDS011;8901;52.088;5.084;2022-09-06T07:53:32;13.13;;;7.72;;
17566;SDS011;8901;52.088;5.084;2022-09-06T07:56:01;9.13;;;7.05;;
17566;SDS011;8901;52.088;5.084;2022-09-06T07:58:31;10.35;;;7.68;;
17566;SDS011;8901;52.088;5.084;2022-09-06T08:01:15;8.52;;;6.28;;
17566;SDS011;8901;52.088;5.084;2022-09-06T08:03:44;10.15;;;8.32;;
17566;SDS011;8901;52.088;5.084;2022-09-06T08:06:12;9.52;;;7.45;;
17566;SDS011;8901;52.088;5.084;2022-09-06T08:08:39;10.98;;;8.00;;
17566;SDS011;8901;52.088;5.084;2022-09-06T08:11:07;9.80;;;8.65;;
17566;SDS011;8901;52.088;5.084;2022-09-06T08:13:34;9.23;;;8.32;;
17566;SDS011;8901;52.088;5.084;2022-09-06T08:16:03;9.13;;;7.88;;
17566;SDS011;8901;52.088;5.084;2022-09-06T08:18:31;9.63;;;8.73;;
17566;SDS011;8901;52.088;5.084;2022-09-06T08:21:04;10.25;;;9.30;;
17566;SDS011;8901;52.088;5.084;2022-09-06T08:23:31;10.00;;;9.10;;
17566;SDS011;8901;52.088;5.084;2022-09-06T08:25:59;10.40;;;8.98;;
17566;SDS011;8901;52.088;5.084;2022-09-06T08:28:28;10.68;;;9.65;;
17566;SDS011;8901;52.088;5.084;2022-09-06T08:31:02;10.10;;;9.20;;
17566;SDS011;8901;52.088;5.084;2022-09-06T08:33:30;10.23;;;9.32;;
17566;SDS011;8901;52.088;5.084;2022-09-06T08:35:59;10.35;;;9.32;;
17566;SDS011;8901;52.088;5.084;2022-09-06T08:38:26;11.23;;;10.23;;
17566;SDS011;8901;52.088;5.084;2022-09-06T08:40:54;11.55;;;10.38;;
17566;SDS011;8901;52.088;5.084;2022-09-06T08:43:35;11.43;;;10.43;;
17566;SDS011;8901;52.088;5.084;2022-09-06T08:46:03;10.05;;;9.15;;
17566;SDS011;8901;52.088;5.084;2022-09-06T08:48:32;10.85;;;9.85;;
17566;SDS011;8901;52.088;5.084;2022-09-06T08:51:15;10.50;;;9.63;;
17566;SDS011;8901;52.088;5.084;2022-09-06T08:54:04;10.45;;;9.45;;
17566;SDS011;8901;52.088;5.084;2022-09-06T08:56:37;9.70;;;8.90;;
17566;SDS011;8901;52.088;5.084;2022-09-06T08:59:12;10.65;;;9.18;;
17566;SDS011;8901;52.088;5.084;2022-09-06T09:01:44;9.65;;;8.95;;
17566;SDS011;8901;52.088;5.084;2022-09-06T09:04:23;8.98;;;8.07;;
17566;SDS011;8901;52.088;5.084;2022-09-06T09:06:54;9.35;;;8.50;;
17566;SDS011;8901;52.088;5.084;2022-09-06T09:09:26;10.85;;;9.45;;
17566;SDS011;8901;52.088;5.084;2022-09-06T09:11:55;9.20;;;7.70;;
17566;SDS011;8901;52.088;5.084;2022-09-06T09:14:26;8.85;;;7.93;;
17566;SDS011;8901;52.088;5.084;2022-09-06T09:17:00;9.48;;;8.57;;
17566;SDS011;8901;52.088;5.084;2022-09-06T09:19:30;10.48;;;9.38;;
17566;SDS011;8901;52.088;5.084;2022-09-06T09:22:00;10.98;;;10.00;;
17566;SDS011;8901;52.088;5.084;2022-09-06T09:24:28;9.13;;;8.32;;
17566;SDS011;8901;52.088;5.084;2022-09-06T09:26:56;10.00;;;9.10;;
17566;SDS011;8901;52.088;5.084;2022-09-06T09:29:32;10.30;;;9.48;;
17566;SDS011;8901;52.088;5.084;2022-09-06T09:32:27;9.75;;;8.93;;
17566;SDS011;8901;52.088;5.084;2022-09-06T09:35:02;10.85;;;9.95;;
17566;SDS011;8901;52.088;5.084;2022-09-06T09:37:42;11.27;;;10.20;;
17566;SDS011;8901;52.088;5.084;2022-09-06T09:40:12;9.93;;;9.02;;
17566;SDS011;8901;52.088;5.084;2022-09-06T09:42:51;10.15;;;9.32;;
17566;SDS011;8901;52.088;5.084;2022-09-06T09:45:23;10.88;;;9.90;;
17566;SDS011;8901;52.088;5.084;2022-09-06T09:47:51;11.18;;;8.40;;
17566;SDS011;8901;52.088;5.084;2022-09-06T09:50:22;9.90;;;9.10;;
17566;SDS011;8901;52.088;5.084;2022-09-06T09:52:52;9.63;;;8.68;;
17566;SDS011;8901;52.088;5.084;2022-09-06T09:55:20;10.85;;;9.43;;
17566;SDS011;8901;52.088;5.084;2022-09-06T09:57:50;8.95;;;8.15;;
17566;SDS011;8901;52.088;5.084;2022-09-06T10:03:10;9.90;;;9.10;;
17566;SDS011;8901;52.088;5.084;2022-09-06T10:05:39;8.93;;;8.30;;
17566;SDS011;8901;52.088;5.084;2022-09-06T10:08:09;11.40;;;10.50;;
17566;SDS011;8901;52.088;5.084;2022-09-06T10:10:39;10.10;;;9.07;;
17566;SDS011;8901;52.088;5.084;2022-09-06T10:13:10;9.50;;;8.80;;
17566;SDS011;8901;52.088;5.084;2022-09-06T10:15:46;10.02;;;9.23;;
17566;SDS011;8901;52.088;5.084;2022-09-06T10:18:14;9.50;;;8.65;;
17566;SDS011;8901;52.088;5.084;2022-09-06T10:20:49;9.07;;;8.35;;
17566;SDS011;8901;52.088;5.084;2022-09-06T10:23:24;9.75;;;8.98;;
17566;SDS011;8901;52.088;5.084;2022-09-06T10:26:02;8.60;;;7.70;;
17566;SDS011;8901;52.088;5.084;2022-09-06T10:28:33;9.90;;;9.07;;
17566;SDS011;8901;52.088;5.084;2022-09-06T10:34:05;10.68;;;9.57;;
17566;SDS011;8901;52.088;5.084;2022-09-06T10:36:47;10.38;;;9.40;;
17566;SDS011;8901;52.088;5.084;2022-09-06T10:39:24;11.63;;;10.15;;
17566;SDS011;8901;52.088;5.084;2022-09-06T10:42:06;11.85;;;10.20;;
17566;SDS011;8901;52.088;5.084;2022-09-06T10:44:43;10.70;;;9.70;;
17566;SDS011;8901;52.088;5.084;2022-09-06T10:47:25;11.82;;;9.80;;
17566;SDS011;8901;52.088;5.084;2022-09-06T10:49:57;9.85;;;9.07;;
17566;SDS011;8901;52.088;5.084;2022-09-06T10:52:30;10.32;;;9.52;;
17566;SDS011;8901;52.088;5.084;2022-09-06T10:54:59;10.02;;;9.10;;
17566;SDS011;8901;52.088;5.084;2022-09-06T10:57:40;10.80;;;9.77;;
17566;SDS011;8901;52.088;5.084;2022-09-06T11:00:11;13.85;;;10.88;;
17566;SDS011;8901;52.088;5.084;2022-09-06T11:02:43;11.65;;;10.63;;
17566;SDS011;8901;52.088;5.084;2022-09-06T11:05:17;11.45;;;10.20;;
17566;SDS011;8901;52.088;5.084;2022-09-06T11:07:48;11.23;;;10.23;;
17566;SDS011;8901;52.088;5.084;2022-09-06T11:10:23;11.25;;;10.20;;
17566;SDS011;8901;52.088;5.084;2022-09-06T11:12:53;13.77;;;10.75;;
17566;SDS011;8901;52.088;5.084;2022-09-06T11:15:25;11.60;;;10.63;;
17566;SDS011;8901;52.088;5.084;2022-09-06T11:17:59;11.52;;;10.52;;
17566;SDS011;8901;52.088;5.084;2022-09-06T11:20:31;12.60;;;11.50;;
17566;SDS011;8901;52.088;5.084;2022-09-06T11:23:18;13.75;;;12.30;;
17566;SDS011;8901;52.088;5.084;2022-09-06T11:26:04;14.27;;;12.32;;
17566;SDS011;8901;52.088;5.084;2022-09-06T11:28:51;13.45;;;12.15;;
17566;SDS011;8901;52.088;5.084;2022-09-06T11:31:21;13.70;;;12.57;;
17566;SDS011;8901;52.088;5.084;2022-09-06T11:34:04;13.98;;;12.60;;
17566;SDS011;8901;52.088;5.084;2022-09-06T11:36:38;13.15;;;11.95;;
17566;SDS011;8901;52.088;5.084;2022-09-06T11:39:11;13.68;;;12.40;;
17566;SDS011;8901;52.088;5.084;2022-09-06T11:41:41;12.38;;;11.15;;
17566;SDS011;8901;52.088;5.084;2022-09-06T11:44:08;13.68;;;12.27;;
17566;SDS011;8901;52.088;5.084;2022-09-06T11:49:37;12.52;;;11.20;;
17566;SDS011;8901;52.088;5.084;2022-09-06T11:55:22;16.45;;;14.73;;
17566;SDS011;8901;52.088;5.084;2022-09-06T11:57:58;15.00;;;13.60;;
17566;SDS011;8901;52.088;5.084;2022-09-06T12:00:39;13.73;;;12.43;;
17566;SDS011;8901;52.088;5.084;2022-09-06T12:03:06;15.65;;;14.02;;
17566;SDS011;8901;52.088;5.084;2022-09-06T12:05:57;14.65;;;13.15;;
17566;SDS011;8901;52.088;5.084;2022-09-06T12:08:43;14.52;;;13.13;;
17566;SDS011;8901;52.088;5.084;2022-09-06T12:14:03;16.42;;;14.60;;
17566;SDS011;8901;52.088;5.084;2022-09-06T12:19:50;11.98;;;10.98;;
17566;SDS011;8901;52.088;5.084;2022-09-06T12:28:24;15.32;;;13.73;;
17566;SDS011;8901;52.088;5.084;2022-09-06T12:30:58;13.70;;;12.50;;
17566;SDS011;8901;52.088;5.084;2022-09-06T12:33:28;14.52;;;13.23;;
17566;SDS011;8901;52.088;5.084;2022-09-06T12:36:12;15.10;;;13.38;;
17566;SDS011;8901;52.088;5.084;2022-09-06T12:38:53;16.17;;;14.57;;
17566;SDS011;8901;52.088;5.084;2022-09-06T12:41:35;14.77;;;13.48;;
17566;SDS011;8901;52.088;5.084;2022-09-06T12:44:04;16.67;;;15.13;;
17566;SDS011;8901;52.088;5.084;2022-09-06T12:46:33;17.67;;;16.00;;
17566;SDS011;8901;52.088;5.084;2022-09-06T12:49:03;15.00;;;13.43;;
17566;SDS011;8901;52.088;5.084;2022-09-06T12:51:32;17.63;;;16.13;;
17566;SDS011;8901;52.088;5.084;2022-09-06T12:54:14;15.07;;;13.77;;
17566;SDS011;8901;52.088;5.084;2022-09-06T12:56:44;16.80;;;15.30;;
17566;SDS011;8901;52.088;5.084;2022-09-06T12:59:12;16.92;;;14.98;;
17566;SDS011;8901;52.088;5.084;2022-09-06T13:01:42;14.82;;;13.48;;
17566;SDS011;8901;52.088;5.084;2022-09-06T13:04:14;16.52;;;15.10;;
17566;SDS011;8901;52.088;5.084;2022-09-06T13:06:47;17.63;;;15.90;;
17566;SDS011;8901;52.088;5.084;2022-09-06T13:09:16;14.27;;;13.07;;
17566;SDS011;8901;52.088;5.084;2022-09-06T13:11:46;18.00;;;16.25;;
17566;SDS011;8901;52.088;5.084;2022-09-06T13:14:16;16.20;;;14.90;;
17566;SDS011;8901;52.088;5.084;2022-09-06T13:16:53;16.25;;;14.85;;
17566;SDS011;8901;52.088;5.084;2022-09-06T13:19:29;17.73;;;16.35;;
17566;SDS011;8901;52.088;5.084;2022-09-06T13:21:59;15.00;;;13.57;;
17566;SDS011;8901;52.088;5.084;2022-09-06T13:24:38;17.98;;;15.35;;
17566;SDS011;8901;52.088;5.084;2022-09-06T13:27:22;13.32;;;11.90;;
17566;SDS011;8901;52.088;5.084;2022-09-06T13:29:59;15.05;;;13.63;;
17566;SDS011;8901;52.088;5.084;2022-09-06T13:32:30;17.65;;;16.45;;
17566;SDS011;8901;52.088;5.084;2022-09-06T13:34:57;17.85;;;16.45;;
17566;SDS011;8901;52.088;5.084;2022-09-06T13:37:26;18.70;;;17.05;;
17566;SDS011;8901;52.088;5.084;2022-09-06T13:39:56;17.45;;;16.13;;
17566;SDS011;8901;52.088;5.084;2022-09-06T13:42:24;14.57;;;13.23;;
17566;SDS011;8901;52.088;5.084;2022-09-06T13:44:53;17.10;;;15.70;;
17566;SDS011;8901;52.088;5.084;2022-09-06T13:47:20;12.10;;;11.00;;
17566;SDS011;8901;52.088;5.084;2022-09-06T13:49:49;15.45;;;14.25;;
17566;SDS011;8901;52.088;5.084;2022-09-06T13:52:19;15.38;;;14.25;;
17566;SDS011;8901;52.088;5.084;2022-09-06T13:54:47;14.55;;;13.15;;
17566;SDS011;8901;52.088;5.084;2022-09-06T13:57:15;14.05;;;12.65;;
17566;SDS011;8901;52.088;5.084;2022-09-06T13:59:42;16.55;;;15.30;;
17566;SDS011;8901;52.088;5.084;2022-09-06T14:02:11;12.13;;;11.10;;
17566;SDS011;8901;52.088;5.084;2022-09-06T14:04:41;13.82;;;12.73;;
17566;SDS011;8901;52.088;5.084;2022-09-06T14:07:08;13.00;;;11.73;;
17566;SDS011;8901;52.088;5.084;2022-09-06T14:09:36;13.00;;;10.20;;
17566;SDS011;8901;52.088;5.084;2022-09-06T14:12:03;14.15;;;13.10;;
17566;SDS011;8901;52.088;5.084;2022-09-06T14:14:32;15.02;;;13.93;;
17566;SDS011;8901;52.088;5.084;2022-09-06T14:17:01;13.93;;;12.65;;
17566;SDS011;8901;52.088;5.084;2022-09-06T14:19:27;12.02;;;11.02;;
17566;SDS011;8901;52.088;5.084;2022-09-06T14:21:54;12.30;;;11.10;;
17566;SDS011;8901;52.088;5.084;2022-09-06T14:24:21;15.43;;;14.27;;
17566;SDS011;8901;52.088;5.084;2022-09-06T14:26:48;16.48;;;15.40;;
17566;SDS011;8901;52.088;5.084;2022-09-06T14:29:16;16.98;;;15.48;;
17566;SDS011;8901;52.088;5.084;2022-09-06T14:31:44;15.90;;;14.82;;
17566;SDS011;8901;52.088;5.084;2022-09-06T14:36:50;13.75;;;12.65;;
17566;SDS011;8901;52.088;5.084;2022-09-06T14:39:17;13.63;;;12.52;;
17566;SDS011;8901;52.088;5.084;2022-09-06T14:41:44;14.63;;;13.73;;
17566;SDS011;8901;52.088;5.084;2022-09-06T14:44:12;15.00;;;14.00;;
17566;SDS011;8901;52.088;5.084;2022-09-06T14:46:39;16.23;;;14.77;;
17566;SDS011;8901;52.088;5.084;2022-09-06T14:49:07;15.85;;;14.85;;
17566;SDS011;8901;52.088;5.084;2022-09-06T14:51:35;16.38;;;15.27;;
17566;SDS011;8901;52.088;5.084;2022-09-06T14:54:04;15.13;;;13.82;;
17566;SDS011;8901;52.088;5.084;2022-09-06T14:56:33;15.85;;;14.85;;
17566;SDS011;8901;52.088;5.084;2022-09-06T14:59:00;14.93;;;13.75;;
17566;SDS011;8901;52.088;5.084;2022-09-06T15:01:28;18.10;;;16.90;;
17566;SDS011;8901;52.088;5.084;2022-09-06T15:03:58;15.02;;;13.73;;
17566;SDS011;8901;52.088;5.084;2022-09-06T15:06:28;16.23;;;15.13;;
17566;SDS011;8901;52.088;5.084;2022-09-06T15:08:57;12.93;;;11.88;;
17566;SDS011;8901;52.088;5.084;2022-09-06T15:11:27;17.05;;;15.85;;
17566;SDS011;8901;52.088;5.084;2022-09-06T15:13:56;16.58;;;15.27;;
17566;SDS011;8901;52.088;5.084;2022-09-06T15:16:23;17.77;;;16.58;;
17566;SDS011;8901;52.088;5.084;2022-09-06T15:18:50;17.67;;;16.20;;
17566;SDS011;8901;52.088;5.084;2022-09-06T15:21:18;17.98;;;16.50;;
17566;SDS011;8901;52.088;5.084;2022-09-06T15:23:46;16.70;;;15.60;;
17566;SDS011;8901;52.088;5.084;2022-09-06T15:26:13;13.75;;;12.50;;
17566;SDS011;8901;52.088;5.084;2022-09-06T15:28:41;14.50;;;13.23;;
17566;SDS011;8901;52.088;5.084;2022-09-06T15:31:08;13.52;;;12.73;;
17566;SDS011;8901;52.088;5.084;2022-09-06T15:33:36;14.30;;;13.13;;
17566;SDS011;8901;52.088;5.084;2022-09-06T15:36:06;15.10;;;14.20;;
17566;SDS011;8901;52.088;5.084;2022-09-06T15:38:35;16.92;;;15.80;;
17566;SDS011;8901;52.088;5.084;2022-09-06T15:41:06;17.17;;;16.08;;
17566;SDS011;8901;52.088;5.084;2022-09-06T15:43:34;17.20;;;16.10;;
17566;SDS011;8901;52.088;5.084;2022-09-06T15:46:04;16.02;;;14.93;;
17566;SDS011;8901;52.088;5.084;2022-09-06T15:48:38;17.48;;;16.17;;